Avilla, Indiana
Current Conditions -  °F | °C
As of 2:35 PM on Sunday 23 Nov 2014 (Local Time) from KGWB Reporting Station
Moderate Rain Moderate Rain  
Wind Chill: 52°   Ceiling: 5000
Heat Index: 52°   Visibility: 7mi
Dew Point: 46°   Wind: 3mph
Humidity: 82%   Direction: 110°ESE
Pressure: 29.68"   Gusts: NA
Location:  41.37°N, 85.24°W
Report Text: KGWB 231935Z AUTO 11003KT 7SM RA SCT028 SCT036 OVC050 11/08 A2968 RMK AO2 P0001
Loading
Personal Weather Stations






























Interactive Weather Map New forecast layout! Learn more

10-Day Weather Forecast

Advertisements
Track Severe Weather on mobile